sensor_id;sensor_type;location;lat;lon;timestamp;temperature;humidity
62363;DHT22;48396;48.426;1.500;2023-06-19T00:01:43;23.20;92.10
62363;DHT22;48396;48.426;1.500;2023-06-19T00:04:10;23.20;92.20
62363;DHT22;48396;48.426;1.500;2023-06-19T00:06:36;23.20;92.20
62363;DHT22;48396;48.426;1.500;2023-06-19T00:09:01;23.10;92.20
62363;DHT22;48396;48.426;1.500;2023-06-19T00:11:27;23.10;92.20
62363;DHT22;48396;48.426;1.500;2023-06-19T00:13:53;23.10;92.20
62363;DHT22;48396;48.426;1.500;2023-06-19T00:16:19;23.10;92.20
62363;DHT22;48396;48.426;1.500;2023-06-19T00:18:45;23.10;92.20
62363;DHT22;48396;48.426;1.500;2023-06-19T00:21:11;23.10;92.10
62363;DHT22;48396;48.426;1.500;2023-06-19T00:23:36;23.10;92.10
62363;DHT22;48396;48.426;1.500;2023-06-19T00:26:02;23.00;92.00
62363;DHT22;48396;48.426;1.500;2023-06-19T00:28:28;22.90;92.20
62363;DHT22;48396;48.426;1.500;2023-06-19T00:30:54;22.90;92.20
62363;DHT22;48396;48.426;1.500;2023-06-19T00:33:20;22.80;92.10
62363;DHT22;48396;48.426;1.500;2023-06-19T00:35:45;22.80;92.10
62363;DHT22;48396;48.426;1.500;2023-06-19T00:38:11;22.70;92.10
62363;DHT22;48396;48.426;1.500;2023-06-19T00:40:37;22.70;92.10
62363;DHT22;48396;48.426;1.500;2023-06-19T00:43:03;22.60;92.00
62363;DHT22;48396;48.426;1.500;2023-06-19T00:45:29;22.70;92.00
62363;DHT22;48396;48.426;1.500;2023-06-19T00:47:55;22.70;91.90
62363;DHT22;48396;48.426;1.500;2023-06-19T00:50:22;22.70;91.90
62363;DHT22;48396;48.426;1.500;2023-06-19T00:52:48;22.70;92.00
62363;DHT22;48396;48.426;1.500;2023-06-19T00:55:15;22.60;92.10
62363;DHT22;48396;48.426;1.500;2023-06-19T00:57:41;22.60;92.20
62363;DHT22;48396;48.426;1.500;2023-06-19T01:00:08;22.60;92.10
62363;DHT22;48396;48.426;1.500;2023-06-19T01:02:36;22.60;92.10
62363;DHT22;48396;48.426;1.500;2023-06-19T01:05:02;22.60;92.10
62363;DHT22;48396;48.426;1.500;2023-06-19T01:10:10;22.60;92.30
62363;DHT22;48396;48.426;1.500;2023-06-19T01:12:40;22.50;92.40
62363;DHT22;48396;48.426;1.500;2023-06-19T01:15:09;22.40;92.60
62363;DHT22;48396;48.426;1.500;2023-06-19T01:17:36;22.50;92.70
62363;DHT22;48396;48.426;1.500;2023-06-19T01:20:02;22.40;92.80
62363;DHT22;48396;48.426;1.500;2023-06-19T01:22:36;22.40;92.80
62363;DHT22;48396;48.426;1.500;2023-06-19T01:25:01;22.50;92.70
62363;DHT22;48396;48.426;1.500;2023-06-19T01:27:27;22.50;92.70
62363;DHT22;48396;48.426;1.500;2023-06-19T01:30:00;22.60;92.70
62363;DHT22;48396;48.426;1.500;2023-06-19T01:35:11;22.60;92.60
62363;DHT22;48396;48.426;1.500;2023-06-19T01:37:38;22.60;92.60
62363;DHT22;48396;48.426;1.500;2023-06-19T01:40:08;22.60;92.70
62363;DHT22;48396;48.426;1.500;2023-06-19T01:42:37;22.50;92.70
62363;DHT22;48396;48.426;1.500;2023-06-19T01:45:04;22.40;92.80
62363;DHT22;48396;48.426;1.500;2023-06-19T01:47:31;22.50;92.80
62363;DHT22;48396;48.426;1.500;2023-06-19T01:49:56;22.50;92.70
62363;DHT22;48396;48.426;1.500;2023-06-19T01:52:23;22.50;92.70
62363;DHT22;48396;48.426;1.500;2023-06-19T01:54:50;22.50;92.70
62363;DHT22;48396;48.426;1.500;2023-06-19T01:57:16;22.40;92.90
62363;DHT22;48396;48.426;1.500;2023-06-19T01:59:41;22.40;93.00
62363;DHT22;48396;48.426;1.500;2023-06-19T02:02:07;22.20;93.10
62363;DHT22;48396;48.426;1.500;2023-06-19T02:04:33;22.20;93.20
62363;DHT22;48396;48.426;1.500;2023-06-19T02:06:59;22.20;93.20
62363;DHT22;48396;48.426;1.500;2023-06-19T02:09:24;22.30;93.20
62363;DHT22;48396;48.426;1.500;2023-06-19T02:11:50;22.20;93.20
62363;DHT22;48396;48.426;1.500;2023-06-19T02:14:15;22.20;93.20
62363;DHT22;48396;48.426;1.500;2023-06-19T02:16:41;22.20;93.00
62363;DHT22;48396;48.426;1.500;2023-06-19T02:19:11;22.20;93.20
62363;DHT22;48396;48.426;1.500;2023-06-19T02:21:37;22.20;93.20
62363;DHT22;48396;48.426;1.500;2023-06-19T02:24:03;22.20;93.20
62363;DHT22;48396;48.426;1.500;2023-06-19T02:26:29;22.10;93.30
62363;DHT22;48396;48.426;1.500;2023-06-19T02:28:55;22.10;93.40
62363;DHT22;48396;48.426;1.500;2023-06-19T02:31:22;22.10;93.40
62363;DHT22;48396;48.426;1.500;2023-06-19T02:33:48;22.10;93.70
62363;DHT22;48396;48.426;1.500;2023-06-19T02:36:14;22.00;93.50
62363;DHT22;48396;48.426;1.500;2023-06-19T02:38:47;21.90;93.60
62363;DHT22;48396;48.426;1.500;2023-06-19T02:41:13;22.00;93.60
62363;DHT22;48396;48.426;1.500;2023-06-19T02:43:42;22.10;93.50
62363;DHT22;48396;48.426;1.500;2023-06-19T02:46:08;22.00;93.40
62363;DHT22;48396;48.426;1.500;2023-06-19T02:48:34;22.10;93.40
62363;DHT22;48396;48.426;1.500;2023-06-19T02:51:00;22.00;93.40
62363;DHT22;48396;48.426;1.500;2023-06-19T02:53:25;22.10;93.40
62363;DHT22;48396;48.426;1.500;2023-06-19T02:55:51;22.10;93.30
62363;DHT22;48396;48.426;1.500;2023-06-19T02:58:16;22.10;93.30
62363;DHT22;48396;48.426;1.500;2023-06-19T03:00:42;22.10;93.60
62363;DHT22;48396;48.426;1.500;2023-06-19T03:03:08;22.10;93.30
62363;DHT22;48396;48.426;1.500;2023-06-19T03:05:33;22.10;93.30
62363;DHT22;48396;48.426;1.500;2023-06-19T03:07:59;22.00;93.40
62363;DHT22;48396;48.426;1.500;2023-06-19T03:10:25;21.90;93.60
62363;DHT22;48396;48.426;1.500;2023-06-19T03:12:50;21.90;93.70
62363;DHT22;48396;48.426;1.500;2023-06-19T03:15:16;22.00;93.70
62363;DHT22;48396;48.426;1.500;2023-06-19T03:17:41;22.00;93.70
62363;DHT22;48396;48.426;1.500;2023-06-19T03:20:07;22.00;93.60
62363;DHT22;48396;48.426;1.500;2023-06-19T03:22:38;22.00;93.60
62363;DHT22;48396;48.426;1.500;2023-06-19T03:25:04;22.10;93.50
62363;DHT22;48396;48.426;1.500;2023-06-19T03:27:31;22.10;93.40
62363;DHT22;48396;48.426;1.500;2023-06-19T03:29:57;22.10;93.40
62363;DHT22;48396;48.426;1.500;2023-06-19T03:32:22;22.10;93.40
62363;DHT22;48396;48.426;1.500;2023-06-19T03:34:48;22.10;93.30
62363;DHT22;48396;48.426;1.500;2023-06-19T03:37:14;22.10;93.30
62363;DHT22;48396;48.426;1.500;2023-06-19T03:39:39;22.10;93.40
62363;DHT22;48396;48.426;1.500;2023-06-19T03:42:05;22.00;93.40
62363;DHT22;48396;48.426;1.500;2023-06-19T03:44:31;22.00;93.50
62363;DHT22;48396;48.426;1.500;2023-06-19T03:46:56;22.00;93.50
62363;DHT22;48396;48.426;1.500;2023-06-19T03:49:22;22.00;93.40
62363;DHT22;48396;48.426;1.500;2023-06-19T03:51:47;22.00;93.40
62363;DHT22;48396;48.426;1.500;2023-06-19T03:54:13;22.00;93.50
62363;DHT22;48396;48.426;1.500;2023-06-19T03:56:39;22.00;93.60
62363;DHT22;48396;48.426;1.500;2023-06-19T03:59:04;21.90;93.80
62363;DHT22;48396;48.426;1.500;2023-06-19T04:01:30;21.80;94.00
62363;DHT22;48396;48.426;1.500;2023-06-19T04:03:55;21.80;93.90
62363;DHT22;48396;48.426;1.500;2023-06-19T04:06:21;21.90;93.90
62363;DHT22;48396;48.426;1.500;2023-06-19T04:08:46;21.90;93.90
62363;DHT22;48396;48.426;1.500;2023-06-19T04:11:12;21.90;93.90
62363;DHT22;48396;48.426;1.500;2023-06-19T04:13:37;21.90;94.00
62363;DHT22;48396;48.426;1.500;2023-06-19T04:16:03;21.90;94.00
62363;DHT22;48396;48.426;1.500;2023-06-19T04:18:29;21.90;94.00
62363;DHT22;48396;48.426;1.500;2023-06-19T04:20:54;21.80;94.00
62363;DHT22;48396;48.426;1.500;2023-06-19T04:23:20;21.80;93.90
62363;DHT22;48396;48.426;1.500;2023-06-19T04:25:45;21.80;93.90
62363;DHT22;48396;48.426;1.500;2023-06-19T04:28:11;21.80;93.80
62363;DHT22;48396;48.426;1.500;2023-06-19T04:30:36;21.80;93.70
62363;DHT22;48396;48.426;1.500;2023-06-19T04:33:04;21.90;93.60
62363;DHT22;48396;48.426;1.500;2023-06-19T04:35:31;21.80;93.50
62363;DHT22;48396;48.426;1.500;2023-06-19T04:37:57;21.80;93.40
62363;DHT22;48396;48.426;1.500;2023-06-19T04:40:26;21.70;93.40
62363;DHT22;48396;48.426;1.500;2023-06-19T04:42:52;21.70;93.40
62363;DHT22;48396;48.426;1.500;2023-06-19T04:45:19;21.70;93.40
62363;DHT22;48396;48.426;1.500;2023-06-19T04:47:44;21.70;93.40
62363;DHT22;48396;48.426;1.500;2023-06-19T04:50:10;21.70;93.30
62363;DHT22;48396;48.426;1.500;2023-06-19T04:52:36;21.70;93.30
62363;DHT22;48396;48.426;1.500;2023-06-19T04:55:05;21.60;93.30
62363;DHT22;48396;48.426;1.500;2023-06-19T04:57:30;21.50;93.30
62363;DHT22;48396;48.426;1.500;2023-06-19T04:59:56;21.60;93.40
62363;DHT22;48396;48.426;1.500;2023-06-19T05:02:21;21.60;93.40
62363;DHT22;48396;48.426;1.500;2023-06-19T05:04:49;21.60;93.40
62363;DHT22;48396;48.426;1.500;2023-06-19T05:07:14;21.60;93.40
62363;DHT22;48396;48.426;1.500;2023-06-19T05:09:43;21.60;93.50
62363;DHT22;48396;48.426;1.500;2023-06-19T05:12:09;21.70;93.30
62363;DHT22;48396;48.426;1.500;2023-06-19T05:14:35;21.70;93.40
62363;DHT22;48396;48.426;1.500;2023-06-19T05:17:01;21.70;93.50
62363;DHT22;48396;48.426;1.500;2023-06-19T05:19:26;21.80;93.40
62363;DHT22;48396;48.426;1.500;2023-06-19T05:21:52;21.80;93.50
62363;DHT22;48396;48.426;1.500;2023-06-19T05:24:17;21.80;93.50
62363;DHT22;48396;48.426;1.500;2023-06-19T05:26:43;21.80;93.50
62363;DHT22;48396;48.426;1.500;2023-06-19T05:29:08;21.90;93.60
62363;DHT22;48396;48.426;1.500;2023-06-19T05:31:34;21.90;93.60
62363;DHT22;48396;48.426;1.500;2023-06-19T05:34:00;21.80;93.60
62363;DHT22;48396;48.426;1.500;2023-06-19T05:36:26;21.90;93.60
62363;DHT22;48396;48.426;1.500;2023-06-19T05:38:51;22.00;93.50
62363;DHT22;48396;48.426;1.500;2023-06-19T05:41:35;21.80;93.50
62363;DHT22;48396;48.426;1.500;2023-06-19T05:44:01;21.60;93.70
62363;DHT22;48396;48.426;1.500;2023-06-19T05:46:27;21.40;93.90
62363;DHT22;48396;48.426;1.500;2023-06-19T05:48:52;21.30;94.10
62363;DHT22;48396;48.426;1.500;2023-06-19T05:51:20;21.30;94.10
62363;DHT22;48396;48.426;1.500;2023-06-19T05:53:45;21.20;94.40
62363;DHT22;48396;48.426;1.500;2023-06-19T05:56:12;21.20;94.50
62363;DHT22;48396;48.426;1.500;2023-06-19T05:58:37;21.20;94.60
62363;DHT22;48396;48.426;1.500;2023-06-19T06:01:04;21.30;94.70
62363;DHT22;48396;48.426;1.500;2023-06-19T06:03:30;21.20;94.80
62363;DHT22;48396;48.426;1.500;2023-06-19T06:05:57;21.00;95.00
62363;DHT22;48396;48.426;1.500;2023-06-19T06:08:29;20.90;95.50
62363;DHT22;48396;48.426;1.500;2023-06-19T06:10:55;20.90;95.80
62363;DHT22;48396;48.426;1.500;2023-06-19T06:13:20;20.80;96.20
62363;DHT22;48396;48.426;1.500;2023-06-19T06:15:46;20.80;96.40
62363;DHT22;48396;48.426;1.500;2023-06-19T06:18:11;20.80;96.60
62363;DHT22;48396;48.426;1.500;2023-06-19T06:20:37;20.90;96.40
62363;DHT22;48396;48.426;1.500;2023-06-19T06:23:03;21.10;96.40
62363;DHT22;48396;48.426;1.500;2023-06-19T06:25:28;21.20;96.30
62363;DHT22;48396;48.426;1.500;2023-06-19T06:27:54;21.40;96.20
62363;DHT22;48396;48.426;1.500;2023-06-19T06:30:20;21.40;96.10
62363;DHT22;48396;48.426;1.500;2023-06-19T06:32:45;21.50;96.00
62363;DHT22;48396;48.426;1.500;2023-06-19T06:35:11;21.60;96.00
62363;DHT22;48396;48.426;1.500;2023-06-19T06:37:36;21.70;95.90
62363;DHT22;48396;48.426;1.500;2023-06-19T06:40:02;21.70;95.90
62363;DHT22;48396;48.426;1.500;2023-06-19T06:42:30;21.80;95.90
62363;DHT22;48396;48.426;1.500;2023-06-19T06:44:56;21.80;95.80
62363;DHT22;48396;48.426;1.500;2023-06-19T06:47:21;21.90;95.90
62363;DHT22;48396;48.426;1.500;2023-06-19T06:49:47;21.90;96.00
62363;DHT22;48396;48.426;1.500;2023-06-19T06:52:12;22.00;96.00
62363;DHT22;48396;48.426;1.500;2023-06-19T06:54:38;22.10;95.90
62363;DHT22;48396;48.426;1.500;2023-06-19T06:57:04;22.00;95.80
62363;DHT22;48396;48.426;1.500;2023-06-19T06:59:30;22.00;95.80
62363;DHT22;48396;48.426;1.500;2023-06-19T07:01:56;22.10;95.80
62363;DHT22;48396;48.426;1.500;2023-06-19T07:04:22;22.10;95.90
62363;DHT22;48396;48.426;1.500;2023-06-19T07:06:47;22.10;95.80
62363;DHT22;48396;48.426;1.500;2023-06-19T07:09:14;22.20;95.80
62363;DHT22;48396;48.426;1.500;2023-06-19T07:11:40;22.20;95.80
62363;DHT22;48396;48.426;1.500;2023-06-19T07:14:06;22.20;95.80
62363;DHT22;48396;48.426;1.500;2023-06-19T07:16:31;22.30;95.70
62363;DHT22;48396;48.426;1.500;2023-06-19T07:18:57;22.40;95.70
62363;DHT22;48396;48.426;1.500;2023-06-19T07:21:22;22.30;95.60
62363;DHT22;48396;48.426;1.500;2023-06-19T07:23:48;22.40;95.70
62363;DHT22;48396;48.426;1.500;2023-06-19T07:26:14;22.40;95.60
62363;DHT22;48396;48.426;1.500;2023-06-19T07:28:43;22.50;95.60
62363;DHT22;48396;48.426;1.500;2023-06-19T07:31:09;22.60;95.50
62363;DHT22;48396;48.426;1.500;2023-06-19T07:33:34;22.60;95.50
62363;DHT22;48396;48.426;1.500;2023-06-19T07:36:01;22.70;95.50
62363;DHT22;48396;48.426;1.500;2023-06-19T07:38:30;22.60;95.50
62363;DHT22;48396;48.426;1.500;2023-06-19T07:40:55;22.60;95.50
62363;DHT22;48396;48.426;1.500;2023-06-19T07:43:21;22.70;95.60
62363;DHT22;48396;48.426;1.500;2023-06-19T07:45:49;22.80;95.40
62363;DHT22;48396;48.426;1.500;2023-06-19T07:48:15;22.80;95.30
62363;DHT22;48396;48.426;1.500;2023-06-19T07:50:41;22.80;95.30
62363;DHT22;48396;48.426;1.500;2023-06-19T07:53:07;22.90;95.30
62363;DHT22;48396;48.426;1.500;2023-06-19T07:55:32;22.90;95.20
62363;DHT22;48396;48.426;1.500;2023-06-19T07:58:00;23.00;95.20
62363;DHT22;48396;48.426;1.500;2023-06-19T08:00:25;23.10;95.20
62363;DHT22;48396;48.426;1.500;2023-06-19T08:02:51;23.10;95.10
62363;DHT22;48396;48.426;1.500;2023-06-19T08:05:17;23.20;95.00
62363;DHT22;48396;48.426;1.500;2023-06-19T08:07:42;23.20;95.10
62363;DHT22;48396;48.426;1.500;2023-06-19T08:10:08;23.20;95.00
62363;DHT22;48396;48.426;1.500;2023-06-19T08:12:34;23.30;94.80
62363;DHT22;48396;48.426;1.500;2023-06-19T08:14:59;23.30;94.50
62363;DHT22;48396;48.426;1.500;2023-06-19T08:17:25;23.30;94.70
62363;DHT22;48396;48.426;1.500;2023-06-19T08:19:51;23.30;94.70
62363;DHT22;48396;48.426;1.500;2023-06-19T08:22:16;23.40;94.70
62363;DHT22;48396;48.426;1.500;2023-06-19T08:24:42;23.50;94.60
62363;DHT22;48396;48.426;1.500;2023-06-19T08:27:07;23.60;94.50
62363;DHT22;48396;48.426;1.500;2023-06-19T08:29:33;23.70;94.40
62363;DHT22;48396;48.426;1.500;2023-06-19T08:31:59;23.70;94.30
62363;DHT22;48396;48.426;1.500;2023-06-19T08:34:25;23.80;94.20
62363;DHT22;48396;48.426;1.500;2023-06-19T08:36:51;23.90;94.10
62363;DHT22;48396;48.426;1.500;2023-06-19T08:39:16;24.00;94.10
62363;DHT22;48396;48.426;1.500;2023-06-19T08:41:42;24.00;94.00
62363;DHT22;48396;48.426;1.500;2023-06-19T08:44:08;24.00;94.00
62363;DHT22;48396;48.426;1.500;2023-06-19T08:46:35;24.10;93.90
62363;DHT22;48396;48.426;1.500;2023-06-19T08:49:02;24.10;94.00
62363;DHT22;48396;48.426;1.500;2023-06-19T08:51:28;24.10;93.90
62363;DHT22;48396;48.426;1.500;2023-06-19T08:54:00;24.10;93.80
62363;DHT22;48396;48.426;1.500;2023-06-19T08:56:26;24.20;93.80
62363;DHT22;48396;48.426;1.500;2023-06-19T08:58:52;24.30;93.70
62363;DHT22;48396;48.426;1.500;2023-06-19T09:01:19;24.40;93.60
62363;DHT22;48396;48.426;1.500;2023-06-19T09:03:45;24.40;93.60
62363;DHT22;48396;48.426;1.500;2023-06-19T09:06:14;24.50;93.50
62363;DHT22;48396;48.426;1.500;2023-06-19T09:08:40;24.50;93.30
62363;DHT22;48396;48.426;1.500;2023-06-19T09:11:07;24.50;93.40
62363;DHT22;48396;48.426;1.500;2023-06-19T09:13:57;24.60;93.40
62363;DHT22;48396;48.426;1.500;2023-06-19T09:16:23;24.70;93.20
62363;DHT22;48396;48.426;1.500;2023-06-19T09:18:51;24.80;93.10
62363;DHT22;48396;48.426;1.500;2023-06-19T09:21:18;24.90;93.00
62363;DHT22;48396;48.426;1.500;2023-06-19T09:23:45;25.00;92.80
62363;DHT22;48396;48.426;1.500;2023-06-19T09:26:14;25.10;92.60
62363;DHT22;48396;48.426;1.500;2023-06-19T09:28:41;25.20;92.40
62363;DHT22;48396;48.426;1.500;2023-06-19T09:31:08;25.20;92.20
62363;DHT22;48396;48.426;1.500;2023-06-19T09:33:35;25.30;92.10
62363;DHT22;48396;48.426;1.500;2023-06-19T09:36:02;25.30;91.90
62363;DHT22;48396;48.426;1.500;2023-06-19T09:38:38;25.30;91.80
62363;DHT22;48396;48.426;1.500;2023-06-19T09:41:06;25.40;91.60
62363;DHT22;48396;48.426;1.500;2023-06-19T09:43:38;25.40;91.40
62363;DHT22;48396;48.426;1.500;2023-06-19T09:46:05;25.40;91.40
62363;DHT22;48396;48.426;1.500;2023-06-19T09:48:32;25.30;91.20
62363;DHT22;48396;48.426;1.500;2023-06-19T09:53:39;25.30;91.30
62363;DHT22;48396;48.426;1.500;2023-06-19T09:56:05;25.30;91.30
62363;DHT22;48396;48.426;1.500;2023-06-19T09:58:33;25.20;90.80
62363;DHT22;48396;48.426;1.500;2023-06-19T10:01:00;25.20;90.60
62363;DHT22;48396;48.426;1.500;2023-06-19T10:03:33;25.20;90.40
62363;DHT22;48396;48.426;1.500;2023-06-19T10:06:00;25.30;90.50
62363;DHT22;48396;48.426;1.500;2023-06-19T10:08:28;25.40;90.30
62363;DHT22;48396;48.426;1.500;2023-06-19T10:10:55;25.40;90.00
62363;DHT22;48396;48.426;1.500;2023-06-19T10:13:20;25.50;90.00
62363;DHT22;48396;48.426;1.500;2023-06-19T10:15:46;25.60;89.80
62363;DHT22;48396;48.426;1.500;2023-06-19T10:18:17;25.60;89.50
62363;DHT22;48396;48.426;1.500;2023-06-19T10:20:44;25.70;89.20
62363;DHT22;48396;48.426;1.500;2023-06-19T10:23:15;25.70;89.10
62363;DHT22;48396;48.426;1.500;2023-06-19T10:25:45;25.80;88.90
62363;DHT22;48396;48.426;1.500;2023-06-19T10:28:29;25.80;88.10
62363;DHT22;48396;48.426;1.500;2023-06-19T10:30:59;25.80;87.70
62363;DHT22;48396;48.426;1.500;2023-06-19T10:33:28;25.80;87.70
62363;DHT22;48396;48.426;1.500;2023-06-19T10:35:54;25.80;87.70
62363;DHT22;48396;48.426;1.500;2023-06-19T10:38:20;25.90;87.70
62363;DHT22;48396;48.426;1.500;2023-06-19T10:40:46;26.00;87.20
62363;DHT22;48396;48.426;1.500;2023-06-19T10:43:31;26.00;87.00
62363;DHT22;48396;48.426;1.500;2023-06-19T10:45:58;25.90;86.70
62363;DHT22;48396;48.426;1.500;2023-06-19T10:48:25;25.90;86.90
62363;DHT22;48396;48.426;1.500;2023-06-19T10:50:51;25.80;86.70
62363;DHT22;48396;48.426;1.500;2023-06-19T10:53:31;25.80;86.60
62363;DHT22;48396;48.426;1.500;2023-06-19T10:56:01;25.80;86.10
62363;DHT22;48396;48.426;1.500;2023-06-19T10:58:28;25.80;86.30
62363;DHT22;48396;48.426;1.500;2023-06-19T11:00:54;25.80;86.40
62363;DHT22;48396;48.426;1.500;2023-06-19T11:03:20;25.70;86.30
62363;DHT22;48396;48.426;1.500;2023-06-19T11:05:47;25.70;86.60
62363;DHT22;48396;48.426;1.500;2023-06-19T11:08:22;25.70;86.80
62363;DHT22;48396;48.426;1.500;2023-06-19T11:10:48;25.70;86.60
62363;DHT22;48396;48.426;1.500;2023-06-19T11:13:16;25.70;86.70
62363;DHT22;48396;48.426;1.500;2023-06-19T11:15:42;25.70;86.80
62363;DHT22;48396;48.426;1.500;2023-06-19T11:18:08;25.80;86.90
62363;DHT22;48396;48.426;1.500;2023-06-19T11:20:48;25.80;87.20
62363;DHT22;48396;48.426;1.500;2023-06-19T11:23:16;25.70;87.30
62363;DHT22;48396;48.426;1.500;2023-06-19T11:25:42;25.60;87.30
62363;DHT22;48396;48.426;1.500;2023-06-19T11:28:13;25.60;87.70
62363;DHT22;48396;48.426;1.500;2023-06-19T11:30:39;25.60;87.60
62363;DHT22;48396;48.426;1.500;2023-06-19T11:33:18;25.60;87.80
62363;DHT22;48396;48.426;1.500;2023-06-19T11:35:51;25.70;88.10
62363;DHT22;48396;48.426;1.500;2023-06-19T11:38:26;25.70;88.40
62363;DHT22;48396;48.426;1.500;2023-06-19T11:40:54;25.70;88.40
62363;DHT22;48396;48.426;1.500;2023-06-19T11:43:35;25.70;88.60
62363;DHT22;48396;48.426;1.500;2023-06-19T11:46:05;25.70;89.00
62363;DHT22;48396;48.426;1.500;2023-06-19T11:48:31;25.60;89.40
62363;DHT22;48396;48.426;1.500;2023-06-19T11:50:57;25.60;90.00
62363;DHT22;48396;48.426;1.500;2023-06-19T11:53:23;25.60;90.10
62363;DHT22;48396;48.426;1.500;2023-06-19T11:55:50;25.60;90.10
62363;DHT22;48396;48.426;1.500;2023-06-19T11:58:16;25.50;90.00
62363;DHT22;48396;48.426;1.500;2023-06-19T12:00:43;25.60;90.00
62363;DHT22;48396;48.426;1.500;2023-06-19T12:03:09;25.50;89.90
62363;DHT22;48396;48.426;1.500;2023-06-19T12:05:36;25.50;90.10
62363;DHT22;48396;48.426;1.500;2023-06-19T12:08:20;25.50;90.30
62363;DHT22;48396;48.426;1.500;2023-06-19T12:10:46;25.40;90.30
62363;DHT22;48396;48.426;1.500;2023-06-19T12:13:11;25.40;90.30
62363;DHT22;48396;48.426;1.500;2023-06-19T12:15:38;25.40;90.50
62363;DHT22;48396;48.426;1.500;2023-06-19T12:18:04;25.40;90.50
62363;DHT22;48396;48.426;1.500;2023-06-19T12:20:32;25.40;90.60
62363;DHT22;48396;48.426;1.500;2023-06-19T12:22:57;25.50;90.50
62363;DHT22;48396;48.426;1.500;2023-06-19T12:25:23;25.40;90.60
62363;DHT22;48396;48.426;1.500;2023-06-19T12:27:48;25.40;90.60
62363;DHT22;48396;48.426;1.500;2023-06-19T12:30:16;25.30;90.70
62363;DHT22;48396;48.426;1.500;2023-06-19T12:32:42;25.40;90.80
62363;DHT22;48396;48.426;1.500;2023-06-19T12:35:08;25.40;90.80
62363;DHT22;48396;48.426;1.500;2023-06-19T12:37:34;25.40;90.70
62363;DHT22;48396;48.426;1.500;2023-06-19T12:39:59;25.40;90.70
62363;DHT22;48396;48.426;1.500;2023-06-19T12:42:25;25.50;90.70
62363;DHT22;48396;48.426;1.500;2023-06-19T12:44:50;25.50;90.70
62363;DHT22;48396;48.426;1.500;2023-06-19T12:47:16;25.50;90.50
62363;DHT22;48396;48.426;1.500;2023-06-19T12:49:43;25.60;90.60
62363;DHT22;48396;48.426;1.500;2023-06-19T12:52:09;25.60;90.60
62363;DHT22;48396;48.426;1.500;2023-06-19T12:54:34;25.60;90.60
62363;DHT22;48396;48.426;1.500;2023-06-19T12:57:00;25.60;90.50
62363;DHT22;48396;48.426;1.500;2023-06-19T12:59:26;25.60;90.50
62363;DHT22;48396;48.426;1.500;2023-06-19T13:01:51;25.50;90.60
62363;DHT22;48396;48.426;1.500;2023-06-19T13:04:17;25.40;90.90
62363;DHT22;48396;48.426;1.500;2023-06-19T13:06:43;25.30;91.10
62363;DHT22;48396;48.426;1.500;2023-06-19T13:09:08;25.30;91.10
62363;DHT22;48396;48.426;1.500;2023-06-19T13:11:34;25.30;91.10
62363;DHT22;48396;48.426;1.500;2023-06-19T13:14:01;25.40;91.10
62363;DHT22;48396;48.426;1.500;2023-06-19T13:16:26;25.40;91.20
62363;DHT22;48396;48.426;1.500;2023-06-19T13:18:52;25.40;91.10
62363;DHT22;48396;48.426;1.500;2023-06-19T13:21:17;25.50;91.30
62363;DHT22;48396;48.426;1.500;2023-06-19T13:23:43;25.60;91.40
62363;DHT22;48396;48.426;1.500;2023-06-19T13:26:09;25.60;91.30
62363;DHT22;48396;48.426;1.500;2023-06-19T13:28:36;25.60;91.40
62363;DHT22;48396;48.426;1.500;2023-06-19T13:31:02;25.60;91.50
62363;DHT22;48396;48.426;1.500;2023-06-19T13:33:28;25.70;91.50
62363;DHT22;48396;48.426;1.500;2023-06-19T13:35:53;25.60;91.80
62363;DHT22;48396;48.426;1.500;2023-06-19T13:38:19;25.60;92.00
62363;DHT22;48396;48.426;1.500;2023-06-19T13:40:44;25.60;92.40
62363;DHT22;48396;48.426;1.500;2023-06-19T13:43:10;25.60;92.70
62363;DHT22;48396;48.426;1.500;2023-06-19T13:45:36;25.60;92.90
62363;DHT22;48396;48.426;1.500;2023-06-19T13:48:04;25.60;93.20
62363;DHT22;48396;48.426;1.500;2023-06-19T13:50:30;25.70;93.30
62363;DHT22;48396;48.426;1.500;2023-06-19T13:52:56;25.70;93.60
62363;DHT22;48396;48.426;1.500;2023-06-19T13:55:21;25.70;93.70
62363;DHT22;48396;48.426;1.500;2023-06-19T13:57:48;25.70;94.10
62363;DHT22;48396;48.426;1.500;2023-06-19T14:00:14;25.60;94.00
62363;DHT22;48396;48.426;1.500;2023-06-19T14:02:40;25.80;94.20
62363;DHT22;48396;48.426;1.500;2023-06-19T14:05:07;25.70;94.40
62363;DHT22;48396;48.426;1.500;2023-06-19T14:07:33;25.70;94.50
62363;DHT22;48396;48.426;1.500;2023-06-19T14:10:01;25.70;94.50
62363;DHT22;48396;48.426;1.500;2023-06-19T14:12:27;25.80;94.70
62363;DHT22;48396;48.426;1.500;2023-06-19T14:14:53;25.80;94.70
62363;DHT22;48396;48.426;1.500;2023-06-19T14:17:18;25.80;94.80
62363;DHT22;48396;48.426;1.500;2023-06-19T14:19:44;25.80;95.10
62363;DHT22;48396;48.426;1.500;2023-06-19T14:22:09;25.90;95.10
62363;DHT22;48396;48.426;1.500;2023-06-19T14:24:35;26.00;95.10
62363;DHT22;48396;48.426;1.500;2023-06-19T14:27:00;26.10;95.00
62363;DHT22;48396;48.426;1.500;2023-06-19T14:29:26;26.20;94.90
62363;DHT22;48396;48.426;1.500;2023-06-19T14:31:52;26.20;94.80
62363;DHT22;48396;48.426;1.500;2023-06-19T14:34:19;26.20;94.80
62363;DHT22;48396;48.426;1.500;2023-06-19T14:36:44;26.30;94.80
62363;DHT22;48396;48.426;1.500;2023-06-19T14:39:10;26.30;94.80
62363;DHT22;48396;48.426;1.500;2023-06-19T14:41:37;26.30;94.80
62363;DHT22;48396;48.426;1.500;2023-06-19T14:46:48;26.50;94.60
62363;DHT22;48396;48.426;1.500;2023-06-19T14:49:13;26.60;94.60
62363;DHT22;48396;48.426;1.500;2023-06-19T14:51:39;26.80;94.70
62363;DHT22;48396;48.426;1.500;2023-06-19T14:54:05;26.90;94.50
62363;DHT22;48396;48.426;1.500;2023-06-19T14:56:30;26.90;94.40
62363;DHT22;48396;48.426;1.500;2023-06-19T14:58:56;26.90;94.30
62363;DHT22;48396;48.426;1.500;2023-06-19T15:01:22;27.10;94.40
62363;DHT22;48396;48.426;1.500;2023-06-19T15:03:47;27.20;94.20
62363;DHT22;48396;48.426;1.500;2023-06-19T15:06:13;27.30;94.10
62363;DHT22;48396;48.426;1.500;2023-06-19T15:08:38;27.30;93.80
62363;DHT22;48396;48.426;1.500;2023-06-19T15:11:04;27.20;93.70
62363;DHT22;48396;48.426;1.500;2023-06-19T15:13:33;27.30;93.80
62363;DHT22;48396;48.426;1.500;2023-06-19T15:15:58;27.30;93.70
62363;DHT22;48396;48.426;1.500;2023-06-19T15:18:25;27.30;93.50
62363;DHT22;48396;48.426;1.500;2023-06-19T15:20:51;27.30;93.40
62363;DHT22;48396;48.426;1.500;2023-06-19T15:23:17;27.20;93.20
62363;DHT22;48396;48.426;1.500;2023-06-19T15:25:43;27.20;93.10
62363;DHT22;48396;48.426;1.500;2023-06-19T15:28:08;27.20;93.00
62363;DHT22;48396;48.426;1.500;2023-06-19T15:30:34;27.20;93.00
62363;DHT22;48396;48.426;1.500;2023-06-19T15:32:59;27.30;92.80
62363;DHT22;48396;48.426;1.500;2023-06-19T15:35:25;27.40;92.70
62363;DHT22;48396;48.426;1.500;2023-06-19T15:37:51;27.40;92.60